sensor_id;sensor_type;location;lat;lon;timestamp;P1;durP1;ratioP1;P2;durP2;ratioP2
50219;SDS011;36110;51.536;7.562;2022-09-24T00:01:50;1.50;;;1.40;;
50219;SDS011;36110;51.536;7.562;2022-09-24T00:04:15;1.80;;;1.45;;
50219;SDS011;36110;51.536;7.562;2022-09-24T00:06:42;1.20;;;1.20;;
50219;SDS011;36110;51.536;7.562;2022-09-24T00:09:09;1.42;;;1.30;;
50219;SDS011;36110;51.536;7.562;2022-09-24T00:11:36;1.58;;;1.48;;
50219;SDS011;36110;51.536;7.562;2022-09-24T00:14:02;1.60;;;1.50;;
50219;SDS011;36110;51.536;7.562;2022-09-24T00:16:28;1.40;;;1.30;;
50219;SDS011;36110;51.536;7.562;2022-09-24T00:18:55;1.40;;;1.30;;
50219;SDS011;36110;51.536;7.562;2022-09-24T00:21:25;1.17;;;1.10;;
50219;SDS011;36110;51.536;7.562;2022-09-24T00:23:53;1.25;;;1.15;;
50219;SDS011;36110;51.536;7.562;2022-09-24T00:26:20;1.33;;;1.23;;
50219;SDS011;36110;51.536;7.562;2022-09-24T00:29:04;1.48;;;1.38;;
50219;SDS011;36110;51.536;7.562;2022-09-24T00:31:31;1.50;;;1.40;;
50219;SDS011;36110;51.536;7.562;2022-09-24T00:33:56;3.17;;;2.15;;
50219;SDS011;36110;51.536;7.562;2022-09-24T00:36:22;4.30;;;2.78;;
50219;SDS011;36110;51.536;7.562;2022-09-24T00:38:48;1.50;;;1.40;;
50219;SDS011;36110;51.536;7.562;2022-09-24T00:41:15;6.22;;;4.30;;
50219;SDS011;36110;51.536;7.562;2022-09-24T00:43:41;2.22;;;1.90;;
50219;SDS011;36110;51.536;7.562;2022-09-24T00:49:00;1.38;;;1.27;;
50219;SDS011;36110;51.536;7.562;2022-09-24T00:51:29;1.65;;;1.50;;
50219;SDS011;36110;51.536;7.562;2022-09-24T00:53:57;4.50;;;2.63;;
50219;SDS011;36110;51.536;7.562;2022-09-24T00:56:24;3.60;;;2.30;;
50219;SDS011;36110;51.536;7.562;2022-09-24T00:58:52;4.80;;;3.35;;
50219;SDS011;36110;51.536;7.562;2022-09-24T01:01:20;1.40;;;1.30;;
50219;SDS011;36110;51.536;7.562;2022-09-24T01:03:46;6.32;;;3.42;;
50219;SDS011;36110;51.536;7.562;2022-09-24T01:06:13;1.60;;;1.50;;
50219;SDS011;36110;51.536;7.562;2022-09-24T01:08:38;5.07;;;3.53;;
50219;SDS011;36110;51.536;7.562;2022-09-24T01:13:57;1.58;;;1.48;;
50219;SDS011;36110;51.536;7.562;2022-09-24T01:22:28;5.18;;;3.92;;
50219;SDS011;36110;51.536;7.562;2022-09-24T01:25:01;1.70;;;1.45;;
50219;SDS011;36110;51.536;7.562;2022-09-24T01:30:44;1.90;;;1.63;;
50219;SDS011;36110;51.536;7.562;2022-09-24T01:33:12;1.52;;;1.42;;
50219;SDS011;36110;51.536;7.562;2022-09-24T01:35:42;2.00;;;1.42;;
50219;SDS011;36110;51.536;7.562;2022-09-24T01:38:10;1.60;;;1.50;;
50219;SDS011;36110;51.536;7.562;2022-09-24T01:40:38;1.50;;;1.40;;
50219;SDS011;36110;51.536;7.562;2022-09-24T01:43:04;6.13;;;2.95;;
50219;SDS011;36110;51.536;7.562;2022-09-24T01:45:32;1.85;;;1.75;;
50219;SDS011;36110;51.536;7.562;2022-09-24T01:48:01;1.45;;;1.35;;
50219;SDS011;36110;51.536;7.562;2022-09-24T01:50:28;1.58;;;1.48;;
50219;SDS011;36110;51.536;7.562;2022-09-24T01:52:58;1.38;;;1.27;;
50219;SDS011;36110;51.536;7.562;2022-09-24T01:55:32;3.58;;;3.10;;
50219;SDS011;36110;51.536;7.562;2022-09-24T01:58:04;1.50;;;1.40;;
50219;SDS011;36110;51.536;7.562;2022-09-24T02:00:33;1.50;;;1.40;;
50219;SDS011;36110;51.536;7.562;2022-09-24T02:03:09;1.20;;;1.20;;
50219;SDS011;36110;51.536;7.562;2022-09-24T02:05:37;3.10;;;1.55;;
50219;SDS011;36110;51.536;7.562;2022-09-24T02:10:50;7.63;;;5.57;;
50219;SDS011;36110;51.536;7.562;2022-09-24T02:13:22;6.05;;;3.80;;
50219;SDS011;36110;51.536;7.562;2022-09-24T02:15:49;1.55;;;1.45;;
50219;SDS011;36110;51.536;7.562;2022-09-24T02:18:18;1.65;;;1.55;;
50219;SDS011;36110;51.536;7.562;2022-09-24T02:20:46;1.67;;;1.58;;
50219;SDS011;36110;51.536;7.562;2022-09-24T02:23:11;9.23;;;7.05;;
50219;SDS011;36110;51.536;7.562;2022-09-24T02:25:41;1.73;;;1.45;;
50219;SDS011;36110;51.536;7.562;2022-09-24T02:28:08;1.95;;;1.75;;
50219;SDS011;36110;51.536;7.562;2022-09-24T02:30:36;1.70;;;1.58;;
50219;SDS011;36110;51.536;7.562;2022-09-24T02:33:05;1.30;;;1.20;;
50219;SDS011;36110;51.536;7.562;2022-09-24T02:35:52;1.42;;;1.33;;
50219;SDS011;36110;51.536;7.562;2022-09-24T02:38:18;1.40;;;1.30;;
50219;SDS011;36110;51.536;7.562;2022-09-24T02:40:43;1.65;;;1.55;;
50219;SDS011;36110;51.536;7.562;2022-09-24T02:43:09;1.38;;;1.27;;
50219;SDS011;36110;51.536;7.562;2022-09-24T02:45:34;1.30;;;1.20;;
50219;SDS011;36110;51.536;7.562;2022-09-24T02:47:59;1.40;;;1.30;;
50219;SDS011;36110;51.536;7.562;2022-09-24T02:50:25;4.93;;;4.07;;
50219;SDS011;36110;51.536;7.562;2022-09-24T02:52:50;2.83;;;2.63;;
50219;SDS011;36110;51.536;7.562;2022-09-24T02:55:15;2.08;;;1.67;;
50219;SDS011;36110;51.536;7.562;2022-09-24T02:57:41;1.40;;;1.30;;
50219;SDS011;36110;51.536;7.562;2022-09-24T03:00:06;1.50;;;1.30;;
50219;SDS011;36110;51.536;7.562;2022-09-24T03:02:32;1.30;;;1.20;;
50219;SDS011;36110;51.536;7.562;2022-09-24T03:04:57;1.40;;;1.30;;
50219;SDS011;36110;51.536;7.562;2022-09-24T03:07:23;1.23;;;1.20;;
50219;SDS011;36110;51.536;7.562;2022-09-24T03:09:48;1.67;;;1.42;;
50219;SDS011;36110;51.536;7.562;2022-09-24T03:12:13;1.42;;;1.33;;
50219;SDS011;36110;51.536;7.562;2022-09-24T03:14:39;1.40;;;1.30;;
50219;SDS011;36110;51.536;7.562;2022-09-24T03:17:04;1.38;;;1.25;;
50219;SDS011;36110;51.536;7.562;2022-09-24T03:19:29;1.60;;;1.50;;
50219;SDS011;36110;51.536;7.562;2022-09-24T03:21:55;1.20;;;1.20;;
50219;SDS011;36110;51.536;7.562;2022-09-24T03:24:20;1.23;;;1.13;;
50219;SDS011;36110;51.536;7.562;2022-09-24T03:26:46;1.30;;;1.25;;
50219;SDS011;36110;51.536;7.562;2022-09-24T03:29:11;8.32;;;4.05;;
50219;SDS011;36110;51.536;7.562;2022-09-24T03:31:36;1.60;;;1.50;;
50219;SDS011;36110;51.536;7.562;2022-09-24T03:34:01;1.30;;;1.20;;
50219;SDS011;36110;51.536;7.562;2022-09-24T03:36:27;1.30;;;1.20;;
50219;SDS011;36110;51.536;7.562;2022-09-24T03:38:53;1.83;;;1.58;;
50219;SDS011;36110;51.536;7.562;2022-09-24T03:41:20;13.80;;;8.93;;
50219;SDS011;36110;51.536;7.562;2022-09-24T03:43:46;12.85;;;7.63;;
50219;SDS011;36110;51.536;7.562;2022-09-24T03:46:11;2.05;;;1.90;;
50219;SDS011;36110;51.536;7.562;2022-09-24T03:48:37;1.27;;;1.17;;
50219;SDS011;36110;51.536;7.562;2022-09-24T03:51:04;1.38;;;1.27;;
50219;SDS011;36110;51.536;7.562;2022-09-24T03:53:31;1.58;;;1.48;;
50219;SDS011;36110;51.536;7.562;2022-09-24T03:55:57;1.50;;;1.40;;
50219;SDS011;36110;51.536;7.562;2022-09-24T03:58:24;8.73;;;5.85;;
50219;SDS011;36110;51.536;7.562;2022-09-24T04:00:50;8.63;;;6.13;;
50219;SDS011;36110;51.536;7.562;2022-09-24T04:03:17;6.38;;;4.43;;
50219;SDS011;36110;51.536;7.562;2022-09-24T04:05:42;6.80;;;5.20;;
50219;SDS011;36110;51.536;7.562;2022-09-24T04:08:08;1.40;;;1.30;;
50219;SDS011;36110;51.536;7.562;2022-09-24T04:10:33;10.23;;;6.60;;
50219;SDS011;36110;51.536;7.562;2022-09-24T04:12:58;1.75;;;1.65;;
50219;SDS011;36110;51.536;7.562;2022-09-24T04:15:24;1.65;;;1.55;;
50219;SDS011;36110;51.536;7.562;2022-09-24T04:17:50;6.68;;;4.20;;
50219;SDS011;36110;51.536;7.562;2022-09-24T04:20:15;1.40;;;1.30;;
50219;SDS011;36110;51.536;7.562;2022-09-24T04:22:41;3.95;;;2.90;;
50219;SDS011;36110;51.536;7.562;2022-09-24T04:25:07;7.78;;;5.00;;
50219;SDS011;36110;51.536;7.562;2022-09-24T04:27:32;1.60;;;1.50;;
50219;SDS011;36110;51.536;7.562;2022-09-24T04:30:00;5.15;;;3.83;;
50219;SDS011;36110;51.536;7.562;2022-09-24T04:32:25;8.57;;;6.38;;
50219;SDS011;36110;51.536;7.562;2022-09-24T04:34:50;4.30;;;3.50;;
50219;SDS011;36110;51.536;7.562;2022-09-24T04:37:15;5.88;;;5.07;;
50219;SDS011;36110;51.536;7.562;2022-09-24T04:39:41;16.92;;;11.23;;
50219;SDS011;36110;51.536;7.562;2022-09-24T04:42:06;18.92;;;12.20;;
50219;SDS011;36110;51.536;7.562;2022-09-24T04:44:31;4.00;;;3.65;;
50219;SDS011;36110;51.536;7.562;2022-09-24T04:46:57;9.68;;;7.78;;
50219;SDS011;36110;51.536;7.562;2022-09-24T04:49:26;16.98;;;11.57;;
50219;SDS011;36110;51.536;7.562;2022-09-24T04:51:51;6.47;;;5.05;;
50219;SDS011;36110;51.536;7.562;2022-09-24T04:54:17;13.60;;;9.50;;
50219;SDS011;36110;51.536;7.562;2022-09-24T04:56:42;6.82;;;4.70;;
50219;SDS011;36110;51.536;7.562;2022-09-24T04:59:07;5.25;;;3.88;;
50219;SDS011;36110;51.536;7.562;2022-09-24T05:01:33;18.75;;;12.52;;
50219;SDS011;36110;51.536;7.562;2022-09-24T05:03:58;4.43;;;3.20;;
50219;SDS011;36110;51.536;7.562;2022-09-24T05:06:23;1.67;;;1.50;;
50219;SDS011;36110;51.536;7.562;2022-09-24T05:08:49;1.40;;;1.30;;
50219;SDS011;36110;51.536;7.562;2022-09-24T05:11:14;1.30;;;1.20;;
50219;SDS011;36110;51.536;7.562;2022-09-24T05:13:39;1.60;;;1.50;;
50219;SDS011;36110;51.536;7.562;2022-09-24T05:16:05;1.60;;;1.50;;
50219;SDS011;36110;51.536;7.562;2022-09-24T05:18:30;14.45;;;11.43;;
50219;SDS011;36110;51.536;7.562;2022-09-24T05:20:55;11.73;;;8.45;;
50219;SDS011;36110;51.536;7.562;2022-09-24T05:23:21;14.02;;;7.38;;
50219;SDS011;36110;51.536;7.562;2022-09-24T05:25:46;5.90;;;4.40;;
50219;SDS011;36110;51.536;7.562;2022-09-24T05:28:30;15.55;;;10.30;;
50219;SDS011;36110;51.536;7.562;2022-09-24T05:30:57;9.13;;;5.40;;
50219;SDS011;36110;51.536;7.562;2022-09-24T05:33:23;6.45;;;5.70;;
50219;SDS011;36110;51.536;7.562;2022-09-24T05:35:55;1.40;;;1.30;;
50219;SDS011;36110;51.536;7.562;2022-09-24T05:38:24;1.50;;;1.40;;
50219;SDS011;36110;51.536;7.562;2022-09-24T05:40:49;1.98;;;1.88;;
50219;SDS011;36110;51.536;7.562;2022-09-24T05:43:15;1.58;;;1.48;;
50219;SDS011;36110;51.536;7.562;2022-09-24T05:45:43;1.50;;;1.40;;
50219;SDS011;36110;51.536;7.562;2022-09-24T05:48:09;1.60;;;1.50;;
50219;SDS011;36110;51.536;7.562;2022-09-24T05:50:34;2.40;;;2.20;;
50219;SDS011;36110;51.536;7.562;2022-09-24T05:53:00;2.50;;;2.08;;
50219;SDS011;36110;51.536;7.562;2022-09-24T05:55:25;1.70;;;1.60;;
50219;SDS011;36110;51.536;7.562;2022-09-24T05:57:51;1.80;;;1.45;;
50219;SDS011;36110;51.536;7.562;2022-09-24T06:00:16;1.88;;;1.70;;
50219;SDS011;36110;51.536;7.562;2022-09-24T06:02:41;5.75;;;3.35;;
50219;SDS011;36110;51.536;7.562;2022-09-24T06:05:07;1.63;;;1.52;;
50219;SDS011;36110;51.536;7.562;2022-09-24T06:07:33;1.60;;;1.50;;
50219;SDS011;36110;51.536;7.562;2022-09-24T06:09:58;1.60;;;1.50;;
50219;SDS011;36110;51.536;7.562;2022-09-24T06:12:24;1.63;;;1.40;;
50219;SDS011;36110;51.536;7.562;2022-09-24T06:14:50;2.63;;;2.22;;
50219;SDS011;36110;51.536;7.562;2022-09-24T06:17:17;5.78;;;4.18;;
50219;SDS011;36110;51.536;7.562;2022-09-24T06:19:42;13.07;;;6.93;;
50219;SDS011;36110;51.536;7.562;2022-09-24T06:22:08;14.32;;;8.60;;
50219;SDS011;36110;51.536;7.562;2022-09-24T06:24:33;4.38;;;3.50;;
50219;SDS011;36110;51.536;7.562;2022-09-24T06:26:59;8.15;;;6.85;;
50219;SDS011;36110;51.536;7.562;2022-09-24T06:29:24;2.38;;;2.10;;
50219;SDS011;36110;51.536;7.562;2022-09-24T06:31:50;2.20;;;2.03;;
50219;SDS011;36110;51.536;7.562;2022-09-24T06:34:17;1.45;;;1.35;;
50219;SDS011;36110;51.536;7.562;2022-09-24T06:36:43;17.73;;;9.07;;
50219;SDS011;36110;51.536;7.562;2022-09-24T06:39:08;8.80;;;4.72;;
50219;SDS011;36110;51.536;7.562;2022-09-24T06:41:33;2.45;;;2.25;;
50219;SDS011;36110;51.536;7.562;2022-09-24T06:43:59;1.77;;;1.67;;
50219;SDS011;36110;51.536;7.562;2022-09-24T06:46:24;1.40;;;1.30;;
50219;SDS011;36110;51.536;7.562;2022-09-24T06:48:50;1.35;;;1.27;;
50219;SDS011;36110;51.536;7.562;2022-09-24T06:51:15;1.55;;;1.45;;
50219;SDS011;36110;51.536;7.562;2022-09-24T06:53:41;15.88;;;10.45;;
50219;SDS011;36110;51.536;7.562;2022-09-24T06:56:06;1.83;;;1.73;;
50219;SDS011;36110;51.536;7.562;2022-09-24T06:58:32;7.18;;;5.30;;
50219;SDS011;36110;51.536;7.562;2022-09-24T07:00:58;1.98;;;1.77;;
50219;SDS011;36110;51.536;7.562;2022-09-24T07:03:26;1.50;;;1.40;;
50219;SDS011;36110;51.536;7.562;2022-09-24T07:05:53;1.25;;;1.25;;
50219;SDS011;36110;51.536;7.562;2022-09-24T07:08:18;1.55;;;1.45;;
50219;SDS011;36110;51.536;7.562;2022-09-24T07:10:44;1.42;;;1.33;;
50219;SDS011;36110;51.536;7.562;2022-09-24T07:13:11;1.40;;;1.30;;
50219;SDS011;36110;51.536;7.562;2022-09-24T07:15:37;1.50;;;1.40;;
50219;SDS011;36110;51.536;7.562;2022-09-24T07:18:02;1.90;;;1.65;;
50219;SDS011;36110;51.536;7.562;2022-09-24T07:20:28;1.42;;;1.33;;
50219;SDS011;36110;51.536;7.562;2022-09-24T07:22:53;1.35;;;1.25;;
50219;SDS011;36110;51.536;7.562;2022-09-24T07:25:20;2.78;;;1.30;;
50219;SDS011;36110;51.536;7.562;2022-09-24T07:27:45;12.82;;;10.40;;
50219;SDS011;36110;51.536;7.562;2022-09-24T07:30:11;2.33;;;2.05;;
50219;SDS011;36110;51.536;7.562;2022-09-24T07:32:36;1.52;;;1.42;;
50219;SDS011;36110;51.536;7.562;2022-09-24T07:35:02;1.70;;;1.50;;
50219;SDS011;36110;51.536;7.562;2022-09-24T07:37:27;1.42;;;1.33;;
50219;SDS011;36110;51.536;7.562;2022-09-24T07:39:56;1.48;;;1.38;;
50219;SDS011;36110;51.536;7.562;2022-09-24T07:42:22;13.68;;;10.38;;
50219;SDS011;36110;51.536;7.562;2022-09-24T07:44:47;20.50;;;13.88;;
50219;SDS011;36110;51.536;7.562;2022-09-24T07:47:14;2.08;;;1.83;;
50219;SDS011;36110;51.536;7.562;2022-09-24T07:49:39;8.57;;;3.78;;
50219;SDS011;36110;51.536;7.562;2022-09-24T07:52:06;15.35;;;10.60;;
50219;SDS011;36110;51.536;7.562;2022-09-24T07:54:31;10.02;;;7.38;;
50219;SDS011;36110;51.536;7.562;2022-09-24T07:56:57;1.60;;;1.50;;
50219;SDS011;36110;51.536;7.562;2022-09-24T07:59:22;1.40;;;1.30;;
50219;SDS011;36110;51.536;7.562;2022-09-24T08:01:48;14.30;;;7.18;;
50219;SDS011;36110;51.536;7.562;2022-09-24T08:04:14;1.45;;;1.30;;
50219;SDS011;36110;51.536;7.562;2022-09-24T08:06:39;1.88;;;1.77;;
50219;SDS011;36110;51.536;7.562;2022-09-24T08:09:05;1.85;;;1.42;;
50219;SDS011;36110;51.536;7.562;2022-09-24T08:11:30;4.63;;;3.08;;
50219;SDS011;36110;51.536;7.562;2022-09-24T08:13:57;17.73;;;12.00;;
50219;SDS011;36110;51.536;7.562;2022-09-24T08:16:23;18.23;;;11.52;;
50219;SDS011;36110;51.536;7.562;2022-09-24T08:18:49;16.33;;;11.40;;
50219;SDS011;36110;51.536;7.562;2022-09-24T08:21:15;14.00;;;10.57;;
50219;SDS011;36110;51.536;7.562;2022-09-24T08:23:41;15.52;;;10.57;;
50219;SDS011;36110;51.536;7.562;2022-09-24T08:26:07;17.73;;;13.48;;
50219;SDS011;36110;51.536;7.562;2022-09-24T08:28:34;15.23;;;10.55;;
50219;SDS011;36110;51.536;7.562;2022-09-24T08:31:00;15.05;;;10.48;;
50219;SDS011;36110;51.536;7.562;2022-09-24T08:33:27;13.60;;;9.85;;
50219;SDS011;36110;51.536;7.562;2022-09-24T08:35:52;16.63;;;12.35;;
50219;SDS011;36110;51.536;7.562;2022-09-24T08:38:18;20.05;;;13.93;;
50219;SDS011;36110;51.536;7.562;2022-09-24T08:43:44;18.88;;;14.52;;
50219;SDS011;36110;51.536;7.562;2022-09-24T08:46:33;19.70;;;14.05;;
50219;SDS011;36110;51.536;7.562;2022-09-24T08:49:18;19.42;;;14.43;;
50219;SDS011;36110;51.536;7.562;2022-09-24T08:51:56;19.27;;;13.23;;
50219;SDS011;36110;51.536;7.562;2022-09-24T08:54:24;19.65;;;14.18;;
50219;SDS011;36110;51.536;7.562;2022-09-24T08:56:50;13.75;;;11.00;;
50219;SDS011;36110;51.536;7.562;2022-09-24T09:02:12;14.95;;;11.02;;
50219;SDS011;36110;51.536;7.562;2022-09-24T09:07:34;10.07;;;7.68;;
50219;SDS011;36110;51.536;7.562;2022-09-24T09:10:08;13.50;;;9.85;;
50219;SDS011;36110;51.536;7.562;2022-09-24T09:12:43;9.32;;;7.15;;
50219;SDS011;36110;51.536;7.562;2022-09-24T09:15:11;9.20;;;7.13;;
50219;SDS011;36110;51.536;7.562;2022-09-24T09:17:45;9.93;;;6.97;;
50219;SDS011;36110;51.536;7.562;2022-09-24T09:20:24;15.55;;;10.43;;
50219;SDS011;36110;51.536;7.562;2022-09-24T09:22:54;11.27;;;9.25;;
50219;SDS011;36110;51.536;7.562;2022-09-24T09:25:26;14.90;;;11.50;;
50219;SDS011;36110;51.536;7.562;2022-09-24T09:27:55;8.82;;;6.70;;
50219;SDS011;36110;51.536;7.562;2022-09-24T09:30:24;9.07;;;7.53;;
50219;SDS011;36110;51.536;7.562;2022-09-24T09:33:06;9.45;;;7.18;;
50219;SDS011;36110;51.536;7.562;2022-09-24T09:35:50;15.13;;;10.77;;
50219;SDS011;36110;51.536;7.562;2022-09-24T09:38:50;11.02;;;8.52;;
50219;SDS011;36110;51.536;7.562;2022-09-24T09:44:00;9.70;;;6.50;;
50219;SDS011;36110;51.536;7.562;2022-09-24T09:46:36;7.75;;;5.90;;
50219;SDS011;36110;51.536;7.562;2022-09-24T09:49:05;13.30;;;8.65;;
50219;SDS011;36110;51.536;7.562;2022-09-24T09:51:37;6.03;;;5.40;;
50219;SDS011;36110;51.536;7.562;2022-09-24T09:54:05;7.05;;;5.35;;
50219;SDS011;36110;51.536;7.562;2022-09-24T09:56:35;6.28;;;5.38;;
50219;SDS011;36110;51.536;7.562;2022-09-24T09:59:15;16.63;;;11.02;;
50219;SDS011;36110;51.536;7.562;2022-09-24T10:01:42;6.75;;;5.05;;
50219;SDS011;36110;51.536;7.562;2022-09-24T10:04:27;6.35;;;5.25;;
50219;SDS011;36110;51.536;7.562;2022-09-24T10:07:05;9.10;;;6.47;;
50219;SDS011;36110;51.536;7.562;2022-09-24T10:09:35;16.35;;;10.00;;
50219;SDS011;36110;51.536;7.562;2022-09-24T10:14:41;14.38;;;10.15;;
50219;SDS011;36110;51.536;7.562;2022-09-24T10:17:14;11.35;;;8.38;;
50219;SDS011;36110;51.536;7.562;2022-09-24T10:19:41;10.32;;;7.55;;
50219;SDS011;36110;51.536;7.562;2022-09-24T10:22:18;9.98;;;6.43;;
50219;SDS011;36110;51.536;7.562;2022-09-24T10:24:44;5.47;;;4.22;;
50219;SDS011;36110;51.536;7.562;2022-09-24T10:27:16;12.95;;;9.80;;
50219;SDS011;36110;51.536;7.562;2022-09-24T10:30:10;5.90;;;4.65;;
50219;SDS011;36110;51.536;7.562;2022-09-24T10:32:59;5.88;;;4.70;;
50219;SDS011;36110;51.536;7.562;2022-09-24T10:35:28;4.90;;;4.30;;
50219;SDS011;36110;51.536;7.562;2022-09-24T10:37:57;7.60;;;6.18;;
50219;SDS011;36110;51.536;7.562;2022-09-24T10:40:25;7.47;;;6.05;;
50219;SDS011;36110;51.536;7.562;2022-09-24T10:42:55;5.22;;;4.32;;
50219;SDS011;36110;51.536;7.562;2022-09-24T10:45:22;7.28;;;5.78;;
50219;SDS011;36110;51.536;7.562;2022-09-24T10:48:07;4.60;;;3.78;;
50219;SDS011;36110;51.536;7.562;2022-09-24T10:55:53;10.63;;;8.18;;
50219;SDS011;36110;51.536;7.562;2022-09-24T11:04:21;11.73;;;8.63;;
50219;SDS011;36110;51.536;7.562;2022-09-24T11:07:17;8.68;;;6.85;;
50219;SDS011;36110;51.536;7.562;2022-09-24T11:18:33;11.50;;;7.70;;
50219;SDS011;36110;51.536;7.562;2022-09-24T11:23:50;11.85;;;7.38;;
50219;SDS011;36110;51.536;7.562;2022-09-24T11:28:58;8.50;;;5.10;;
50219;SDS011;36110;51.536;7.562;2022-09-24T11:44:49;5.35;;;4.53;;
50219;SDS011;36110;51.536;7.562;2022-09-24T11:47:22;8.50;;;6.00;;
50219;SDS011;36110;51.536;7.562;2022-09-24T11:52:39;7.03;;;5.45;;
50219;SDS011;36110;51.536;7.562;2022-09-24T11:55:16;5.43;;;4.68;;
50219;SDS011;36110;51.536;7.562;2022-09-24T11:57:46;7.65;;;6.45;;
50219;SDS011;36110;51.536;7.562;2022-09-24T12:00:16;5.70;;;4.82;;
50219;SDS011;36110;51.536;7.562;2022-09-24T12:05:43;5.40;;;4.25;;
50219;SDS011;36110;51.536;7.562;2022-09-24T12:08:12;5.47;;;4.90;;
50219;SDS011;36110;51.536;7.562;2022-09-24T12:11:14;4.85;;;4.25;;
50219;SDS011;36110;51.536;7.562;2022-09-24T12:13:57;10.75;;;8.65;;
50219;SDS011;36110;51.536;7.562;2022-09-24T12:16:27;4.82;;;4.03;;
50219;SDS011;36110;51.536;7.562;2022-09-24T12:19:07;10.00;;;7.03;;
50219;SDS011;36110;51.536;7.562;2022-09-24T12:21:39;4.72;;;4.13;;
50219;SDS011;36110;51.536;7.562;2022-09-24T12:24:19;9.93;;;8.43;;
50219;SDS011;36110;51.536;7.562;2022-09-24T12:26:46;4.57;;;4.18;;
50219;SDS011;36110;51.536;7.562;2022-09-24T12:32:11;4.45;;;4.05;;
50219;SDS011;36110;51.536;7.562;2022-09-24T12:35:09;4.75;;;3.78;;
50219;SDS011;36110;51.536;7.562;2022-09-24T12:37:38;4.22;;;3.83;;
50219;SDS011;36110;51.536;7.562;2022-09-24T12:42:37;4.43;;;3.75;;
50219;SDS011;36110;51.536;7.562;2022-09-24T12:45:11;8.38;;;6.53;;
50219;SDS011;36110;51.536;7.562;2022-09-24T12:47:44;11.55;;;8.10;;
50219;SDS011;36110;51.536;7.562;2022-09-24T12:50:27;11.82;;;9.73;;
50219;SDS011;36110;51.536;7.562;2022-09-24T12:52:55;5.55;;;4.95;;
50219;SDS011;36110;51.536;7.562;2022-09-24T12:55:29;9.75;;;5.78;;
50219;SDS011;36110;51.536;7.562;2022-09-24T12:57:57;5.18;;;4.68;;
50219;SDS011;36110;51.536;7.562;2022-09-24T13:03:05;12.13;;;8.82;;
50219;SDS011;36110;51.536;7.562;2022-09-24T13:05:49;8.57;;;7.30;;
50219;SDS011;36110;51.536;7.562;2022-09-24T13:13:23;16.23;;;12.13;;
50219;SDS011;36110;51.536;7.562;2022-09-24T13:16:04;9.70;;;6.78;;
50219;SDS011;36110;51.536;7.562;2022-09-24T13:18:31;7.22;;;6.35;;
50219;SDS011;36110;51.536;7.562;2022-09-24T13:21:02;18.30;;;13.77;;
50219;SDS011;36110;51.536;7.562;2022-09-24T13:23:48;10.73;;;9.63;;
50219;SDS011;36110;51.536;7.562;2022-09-24T13:26:34;15.40;;;12.40;;
50219;SDS011;36110;51.536;7.562;2022-09-24T13:29:00;13.13;;;10.52;;
50219;SDS011;36110;51.536;7.562;2022-09-24T13:31:30;8.27;;;5.78;;
50219;SDS011;36110;51.536;7.562;2022-09-24T13:34:11;6.97;;;5.88;;
50219;SDS011;36110;51.536;7.562;2022-09-24T13:36:41;8.70;;;7.80;;
50219;SDS011;36110;51.536;7.562;2022-09-24T13:44:55;14.45;;;12.55;;
50219;SDS011;36110;51.536;7.562;2022-09-24T13:47:46;6.95;;;6.15;;
50219;SDS011;36110;51.536;7.562;2022-09-24T13:55:27;18.77;;;14.13;;
50219;SDS011;36110;51.536;7.562;2022-09-24T13:57:55;18.27;;;14.98;;
50219;SDS011;36110;51.536;7.562;2022-09-24T14:00:25;12.07;;;10.13;;
50219;SDS011;36110;51.536;7.562;2022-09-24T14:05:27;19.35;;;15.13;;
50219;SDS011;36110;51.536;7.562;2022-09-24T14:07:59;14.70;;;11.40;;
50219;SDS011;36110;51.536;7.562;2022-09-24T14:10:29;18.77;;;14.90;;
50219;SDS011;36110;51.536;7.562;2022-09-24T14:12:59;13.73;;;11.68;;
50219;SDS011;36110;51.536;7.562;2022-09-24T14:15:25;21.02;;;14.50;;
50219;SDS011;36110;51.536;7.562;2022-09-24T14:17:54;18.42;;;16.33;;
50219;SDS011;36110;51.536;7.562;2022-09-24T14:20:20;19.52;;;16.48;;
50219;SDS011;36110;51.536;7.562;2022-09-24T14:22:46;15.02;;;10.75;;
50219;SDS011;36110;51.536;7.562;2022-09-24T14:25:16;12.25;;;9.98;;
50219;SDS011;36110;51.536;7.562;2022-09-24T14:27:44;19.55;;;15.48;;
50219;SDS011;36110;51.536;7.562;2022-09-24T14:30:25;17.20;;;13.10;;
50219;SDS011;36110;51.536;7.562;2022-09-24T14:32:59;19.27;;;16.90;;
50219;SDS011;36110;51.536;7.562;2022-09-24T14:35:30;20.83;;;18.20;;
50219;SDS011;36110;51.536;7.562;2022-09-24T14:37:58;21.15;;;17.00;;
50219;SDS011;36110;51.536;7.562;2022-09-24T14:40:42;9.25;;;8.35;;
50219;SDS011;36110;51.536;7.562;2022-09-24T14:48:28;19.35;;;16.38;;
50219;SDS011;36110;51.536;7.562;2022-09-24T14:50:55;21.05;;;16.58;;
50219;SDS011;36110;51.536;7.562;2022-09-24T14:56:00;18.52;;;15.30;;
50219;SDS011;36110;51.536;7.562;2022-09-24T14:58:42;21.70;;;17.73;;
50219;SDS011;36110;51.536;7.562;2022-09-24T15:01:14;21.15;;;17.98;;
50219;SDS011;36110;51.536;7.562;2022-09-24T15:03:43;11.85;;;9.52;;
50219;SDS011;36110;51.536;7.562;2022-09-24T15:06:15;14.32;;;11.70;;
50219;SDS011;36110;51.536;7.562;2022-09-24T15:08:43;20.30;;;17.52;;
50219;SDS011;36110;51.536;7.562;2022-09-24T15:11:14;9.25;;;8.32;;
50219;SDS011;36110;51.536;7.562;2022-09-24T15:13:41;8.10;;;6.82;;
50219;SDS011;36110;51.536;7.562;2022-09-24T15:16:19;8.38;;;7.28;;
50219;SDS011;36110;51.536;7.562;2022-09-24T15:21:30;22.57;;;19.50;;
50219;SDS011;36110;51.536;7.562;2022-09-24T15:23:56;25.20;;;20.10;;
50219;SDS011;36110;51.536;7.562;2022-09-24T15:26:22;22.05;;;18.10;;
50219;SDS011;36110;51.536;7.562;2022-09-24T15:28:51;10.38;;;8.85;;
50219;SDS011;36110;51.536;7.562;2022-09-24T15:31:16;15.35;;;13.05;;
50219;SDS011;36110;51.536;7.562;2022-09-24T15:33:41;17.80;;;14.60;;
50219;SDS011;36110;51.536;7.562;2022-09-24T15:36:07;22.00;;;18.60;;
50219;SDS011;36110;51.536;7.562;2022-09-24T15:38:33;15.80;;;14.02;;
50219;SDS011;36110;51.536;7.562;2022-09-24T15:40:59;9.02;;;8.10;;
50219;SDS011;36110;51.536;7.562;2022-09-24T15:43:24;20.52;;;18.10;;
50219;SDS011;36110;51.536;7.562;2022-09-24T15:45:49;24.25;;;19.33;;
50219;SDS011;36110;51.536;7.562;2022-09-24T15:48:15;21.85;;;19.05;;
50219;SDS011;36110;51.536;7.562;2022-09-24T15:50:41;24.77;;;19.52;;
50219;SDS011;36110;51.536;7.562;2022-09-24T15:53:11;8.80;;;7.90;;
50219;SDS011;36110;51.536;7.562;2022-09-24T15:55:51;16.67;;;14.90;;
50219;SDS011;36110;51.536;7.562;2022-09-24T15:58:18;21.20;;;18.85;;
50219;SDS011;36110;51.536;7.562;2022-09-24T16:00:43;22.52;;;19.83;;
50219;SDS011;36110;51.536;7.562;2022-09-24T16:03:43;7.40;;;6.70;;
50219;SDS011;36110;51.536;7.562;2022-09-24T16:06:02;21.77;;;18.38;;
50219;SDS011;36110;51.536;7.562;2022-09-24T16:08:27;23.50;;;19.85;;
50219;SDS011;36110;51.536;7.562;2022-09-24T16:10:52;14.80;;;13.32;;
50219;SDS011;36110;51.536;7.562;2022-09-24T16:13:18;8.63;;;7.20;;
50219;SDS011;36110;51.536;7.562;2022-09-24T16:15:46;15.40;;;13.52;;
50219;SDS011;36110;51.536;7.562;2022-09-24T16:18:12;16.92;;;14.57;;
50219;SDS011;36110;51.536;7.562;2022-09-24T16:20:38;12.63;;;11.27;;
50219;SDS011;36110;51.536;7.562;2022-09-24T16:23:05;15.45;;;13.75;;
50219;SDS011;36110;51.536;7.562;2022-09-24T16:25:31;14.57;;;11.13;;
50219;SDS011;36110;51.536;7.562;2022-09-24T16:27:57;15.73;;;14.02;;
50219;SDS011;36110;51.536;7.562;2022-09-24T16:30:23;19.83;;;17.67;;
50219;SDS011;36110;51.536;7.562;2022-09-24T16:32:48;22.17;;;17.15;;
50219;SDS011;36110;51.536;7.562;2022-09-24T16:35:13;13.60;;;12.27;;
50219;SDS011;36110;51.536;7.562;2022-09-24T16:37:39;21.25;;;18.05;;
50219;SDS011;36110;51.536;7.562;2022-09-24T16:40:05;14.65;;;13.15;;
50219;SDS011;36110;51.536;7.562;2022-09-24T16:42:31;17.73;;;14.85;;
50219;SDS011;36110;51.536;7.562;2022-09-24T16:44:57;13.50;;;12.05;;